MLA2291 LZIB-LOWW
Flight info
| Callsign | MLA2291 |
|---|---|
| Flight time | 0h 15m |
| Altitude | 5000 |
| Route | DCT TOVKA DCT |
| Aircraft | C208/L-V/N |
Departure
| Time | 2026-05-04 01:05 |
|---|---|
| Airport | M. R. Štefánik Airport (LZIB) |
Arrival
| Time | 2026-05-04 01:21 |
|---|---|
| Airport | Vienna International Airport (LOWW) |
| Time | Latitude | Longitude | Altitude | Speed | Heading |
|---|---|---|---|---|---|
| 2026-05-04 00:48 | 48.17245 | 17.20396 | 428 ft | 0 kts | 134° |
| 2026-05-04 00:57 | 48.17243 | 17.20431 | 423 ft | 6 kts | 78° |
| 2026-05-04 00:57 | 48.17243 | 17.20510 | 428 ft | 9 kts | 108° |
| 2026-05-04 00:57 | 48.17198 | 17.20600 | 420 ft | 12 kts | 134° |
| 2026-05-04 00:58 | 48.17132 | 17.20700 | 422 ft | 15 kts | 133° |
| 2026-05-04 00:58 | 48.17058 | 17.20821 | 428 ft | 17 kts | 134° |
| 2026-05-04 00:58 | 48.16976 | 17.20948 | 426 ft | 15 kts | 135° |
| 2026-05-04 00:58 | 48.16893 | 17.21064 | 423 ft | 17 kts | 134° |
| 2026-05-04 00:59 | 48.16821 | 17.21184 | 429 ft | 15 kts | 133° |
| 2026-05-04 00:59 | 48.16748 | 17.21301 | 428 ft | 16 kts | 134° |
| 2026-05-04 00:59 | 48.16669 | 17.21425 | 428 ft | 16 kts | 135° |
| 2026-05-04 00:59 | 48.16587 | 17.21548 | 428 ft | 17 kts | 134° |
| 2026-05-04 01:00 | 48.16503 | 17.21678 | 428 ft | 18 kts | 133° |
| 2026-05-04 01:00 | 48.16422 | 17.21804 | 420 ft | 18 kts | 134° |
| 2026-05-04 01:00 | 48.16343 | 17.21929 | 428 ft | 17 kts | 135° |
| 2026-05-04 01:00 | 48.16262 | 17.22052 | 421 ft | 17 kts | 134° |
| 2026-05-04 01:01 | 48.16177 | 17.22184 | 423 ft | 17 kts | 134° |
| 2026-05-04 01:01 | 48.16092 | 17.22315 | 420 ft | 18 kts | 135° |
| 2026-05-04 01:01 | 48.16008 | 17.22441 | 427 ft | 17 kts | 134° |
| 2026-05-04 01:01 | 48.15923 | 17.22572 | 426 ft | 18 kts | 131° |
| 2026-05-04 01:02 | 48.15837 | 17.22707 | 424 ft | 16 kts | 134° |
| 2026-05-04 01:02 | 48.15759 | 17.22829 | 428 ft | 17 kts | 133° |
| 2026-05-04 01:02 | 48.15692 | 17.22979 | 428 ft | 18 kts | 108° |
| 2026-05-04 01:02 | 48.15679 | 17.23057 | 428 ft | 0 kts | 102° |
| 2026-05-04 01:03 | 48.15675 | 17.23090 | 422 ft | 7 kts | 98° |
| 2026-05-04 01:03 | 48.15693 | 17.23176 | 420 ft | 10 kts | 45° |
| 2026-05-04 01:04 | 48.15759 | 17.23201 | 420 ft | 16 kts | 327° |
| 2026-05-04 01:04 | 48.16052 | 17.22750 | 426 ft | 101 kts | 315° |
| 2026-05-04 01:04 | 48.16607 | 17.21891 | 629 ft | 122 kts | 314° |
| 2026-05-04 01:04 | 48.17223 | 17.20886 | 786 ft | 141 kts | 315° |
| 2026-05-04 01:05 | 48.17942 | 17.19796 | 957 ft | 151 kts | 316° |
| 2026-05-04 01:05 | 48.18690 | 17.18645 | 1134 ft | 156 kts | 316° |
| 2026-05-04 01:05 | 48.19448 | 17.17457 | 1313 ft | 158 kts | 316° |
| 2026-05-04 01:05 | 48.20217 | 17.16261 | 1524 ft | 160 kts | 316° |
| 2026-05-04 01:06 | 48.20996 | 17.15058 | 1751 ft | 162 kts | 316° |
| 2026-05-04 01:06 | 48.21794 | 17.13827 | 2002 ft | 164 kts | 314° |
| 2026-05-04 01:06 | 48.22574 | 17.12597 | 2267 ft | 161 kts | 315° |
| 2026-05-04 01:06 | 48.23357 | 17.11382 | 2549 ft | 165 kts | 314° |
| 2026-05-04 01:07 | 48.24145 | 17.10144 | 2820 ft | 163 kts | 310° |
| 2026-05-04 01:07 | 48.24711 | 17.08711 | 3090 ft | 158 kts | 280° |
| 2026-05-04 01:07 | 48.24921 | 17.07131 | 3368 ft | 156 kts | 272° |
| 2026-05-04 01:07 | 48.25163 | 17.05501 | 3640 ft | 163 kts | 278° |
| 2026-05-04 01:08 | 48.25419 | 17.03857 | 3910 ft | 160 kts | 276° |
| 2026-05-04 01:08 | 48.25629 | 17.02348 | 4155 ft | 157 kts | 276° |
| 2026-05-04 01:08 | 48.25858 | 17.00718 | 4438 ft | 155 kts | 276° |
| 2026-05-04 01:08 | 48.26081 | 16.99135 | 4709 ft | 155 kts | 276° |
| 2026-05-04 01:09 | 48.26307 | 16.97541 | 4950 ft | 158 kts | 276° |
| 2026-05-04 01:09 | 48.26538 | 16.95883 | 4990 ft | 166 kts | 274° |
| 2026-05-04 01:09 | 48.26470 | 16.94166 | 5000 ft | 167 kts | 250° |
| 2026-05-04 01:09 | 48.25952 | 16.92617 | 4988 ft | 166 kts | 228° |
| 2026-05-04 01:10 | 48.25086 | 16.91512 | 4989 ft | 164 kts | 207° |
| 2026-05-04 01:10 | 48.24038 | 16.90875 | 4989 ft | 162 kts | 199° |
| 2026-05-04 01:10 | 48.22990 | 16.90246 | 4988 ft | 162 kts | 201° |
| 2026-05-04 01:10 | 48.21942 | 16.89617 | 4988 ft | 163 kts | 200° |
| 2026-05-04 01:11 | 48.20890 | 16.88999 | 4988 ft | 162 kts | 201° |
| 2026-05-04 01:11 | 48.19837 | 16.88377 | 4989 ft | 162 kts | 197° |
| 2026-05-04 01:11 | 48.18771 | 16.87835 | 4979 ft | 161 kts | 197° |
| 2026-05-04 01:11 | 48.17723 | 16.87245 | 4964 ft | 160 kts | 198° |
| 2026-05-04 01:12 | 48.16682 | 16.86659 | 4966 ft | 159 kts | 197° |
| 2026-05-04 01:12 | 48.15733 | 16.85831 | 4953 ft | 158 kts | 216° |
| 2026-05-04 01:12 | 48.15045 | 16.84596 | 4947 ft | 157 kts | 232° |
| 2026-05-04 01:12 | 48.14655 | 16.83063 | 4909 ft | 161 kts | 251° |
| 2026-05-04 01:13 | 48.14644 | 16.81342 | 4727 ft | 170 kts | 273° |
| 2026-05-04 01:13 | 48.15058 | 16.79661 | 4526 ft | 176 kts | 294° |
| 2026-05-04 01:13 | 48.15871 | 16.78273 | 4334 ft | 179 kts | 313° |
| 2026-05-04 01:13 | 48.16801 | 16.77032 | 4133 ft | 180 kts | 311° |
| 2026-05-04 01:14 | 48.17720 | 16.75756 | 3917 ft | 180 kts | 311° |
| 2026-05-04 01:14 | 48.18634 | 16.74468 | 3695 ft | 180 kts | 311° |
| 2026-05-04 01:14 | 48.19553 | 16.73198 | 3513 ft | 178 kts | 313° |
| 2026-05-04 01:14 | 48.20388 | 16.71883 | 3346 ft | 171 kts | 296° |
| 2026-05-04 01:15 | 48.20788 | 16.70281 | 3310 ft | 158 kts | 275° |
| 2026-05-04 01:15 | 48.21032 | 16.68697 | 3296 ft | 153 kts | 276° |
| 2026-05-04 01:15 | 48.21291 | 16.67173 | 3289 ft | 148 kts | 276° |
| 2026-05-04 01:15 | 48.21538 | 16.65732 | 3291 ft | 143 kts | 276° |
| 2026-05-04 01:16 | 48.21779 | 16.64298 | 3291 ft | 143 kts | 276° |
| 2026-05-04 01:16 | 48.22028 | 16.62855 | 3305 ft | 141 kts | 271° |
| 2026-05-04 01:16 | 48.22056 | 16.61409 | 3321 ft | 138 kts | 257° |
| 2026-05-04 01:16 | 48.21877 | 16.59998 | 3261 ft | 137 kts | 244° |
| 2026-05-04 01:17 | 48.21483 | 16.58699 | 3196 ft | 138 kts | 231° |
| 2026-05-04 01:17 | 48.20892 | 16.57548 | 3123 ft | 138 kts | 218° |
| 2026-05-04 01:17 | 48.20133 | 16.56640 | 3001 ft | 138 kts | 206° |
| 2026-05-04 01:17 | 48.19303 | 16.56020 | 2808 ft | 126 kts | 194° |
| 2026-05-04 01:18 | 48.18527 | 16.55730 | 2682 ft | 114 kts | 184° |
| 2026-05-04 01:18 | 48.17739 | 16.55642 | 2479 ft | 109 kts | 174° |
| 2026-05-04 01:18 | 48.17049 | 16.55770 | 2246 ft | 104 kts | 164° |
| 2026-05-04 01:18 | 48.16412 | 16.56039 | 2009 ft | 103 kts | 160° |
| 2026-05-04 01:19 | 48.15733 | 16.56311 | 1734 ft | 99 kts | 161° |
| 2026-05-04 01:19 | 48.15067 | 16.56583 | 1423 ft | 99 kts | 160° |
| 2026-05-04 01:19 | 48.14407 | 16.56855 | 1151 ft | 97 kts | 160° |
| 2026-05-04 01:19 | 48.13771 | 16.57127 | 990 ft | 95 kts | 158° |
| 2026-05-04 01:20 | 48.13180 | 16.57367 | 890 ft | 89 kts | 160° |
| 2026-05-04 01:20 | 48.12584 | 16.57578 | 789 ft | 88 kts | 161° |
| 2026-05-04 01:20 | 48.11993 | 16.57816 | 673 ft | 86 kts | 159° |
| 2026-05-04 01:20 | 48.11466 | 16.58044 | 610 ft | 70 kts | 161° |
| 2026-05-04 01:21 | 48.11163 | 16.58188 | 608 ft | 7 kts | 186° |
| 2026-05-04 01:21 | 48.11110 | 16.58149 | 608 ft | 16 kts | 217° |
| 2026-05-04 01:21 | 48.11074 | 16.57976 | 608 ft | 0 kts | 292° |
| 2026-05-04 01:23 | 48.11075 | 16.57974 | 608 ft | 2 kts | 292° |
| 2026-05-04 01:23 | 48.11105 | 16.57874 | 608 ft | 15 kts | 294° |
| 2026-05-04 01:23 | 48.11154 | 16.57723 | 617 ft | 17 kts | 294° |
| 2026-05-04 01:23 | 48.11203 | 16.57572 | 608 ft | 16 kts | 298° |
| 2026-05-04 01:24 | 48.11255 | 16.57412 | 608 ft | 16 kts | 296° |
| 2026-05-04 01:24 | 48.11311 | 16.57332 | 608 ft | 10 kts | 9° |
| 2026-05-04 01:24 | 48.11382 | 16.57383 | 608 ft | 13 kts | 24° |
| 2026-05-04 01:24 | 48.11445 | 16.57331 | 608 ft | 12 kts | 295° |
| 2026-05-04 01:25 | 48.11466 | 16.57266 | 608 ft | 0 kts | 299° |
| 2026-05-04 01:25 | 48.11468 | 16.57259 | 608 ft | 4 kts | 298° |
| 2026-05-04 01:25 | 48.11448 | 16.57217 | 608 ft | 7 kts | 203° |
| 2026-05-04 01:25 | 48.11415 | 16.57193 | 608 ft | 0 kts | 207° |
| 2026-05-04 01:26 | 48.11412 | 16.57191 | 608 ft | 2 kts | 206° |
| 2026-05-04 01:26 | 48.11408 | 16.57188 | 608 ft | 0 kts | 206° |